Terminal Aerodrome Forecast
Issued by NWS

Home | Current Version | Previous Version | Graphics & Text | Print | Product List | Glossary On
Versions: 1 2 3 4 5 6 7 8 9 10 11 12 13 14 15 16 17
000
FTUS43 KIWX 281720
TAFSBN
TAF
KSBN 281720Z 2818/2918 01006KT P6SM VCTS SCT025 BKN060CB
     FM282130 32005KT P6SM SCT250
     FM290300 02005KT P6SM FEW250
     FM290800 05004KT P6SM FEW250
     FM291400 09005KT P6SM FEW250=

USA.gov is the U.S. government's official web portal to all federal, state and local government web resources and services.